Time;durP1;ratioP1;P1;durP2;ratioP2;P2;SDS_P1;SDS_P2;PMS_P1;PMS_P2;Temp;Humidity;BMP_temperature;BMP_pressure;BME280_temperature;BME280_humidity;BME280_pressure;Samples;Min_cycle;Max_cycle;Signal;HPM_P1;HPM_P2
2024/02/17 00:01:32;;;;;;;27.10;11.50;;;;;;;10.70;100.00;98009.66;5038723;28;20949;-78
2024/02/17 00:03:58;;;;;;;18.23;8.63;;;;;;;10.66;100.00;98009.34;5038593;28;20832;-78
2024/02/17 00:06:24;;;;;;;19.63;8.07;;;;;;;10.64;100.00;98014.06;5038250;28;20391;-78
2024/02/17 00:08:50;;;;;;;19.98;9.30;;;;;;;10.63;100.00;98019.59;5038385;28;20427;-78
2024/02/17 00:11:16;;;;;;;21.90;9.25;;;;;;;10.63;100.00;98017.75;5037724;28;20399;-78
2024/02/17 00:13:43;;;;;;;17.63;7.70;;;;;;;10.61;100.00;98011.88;5037558;28;20434;-78
2024/02/17 00:16:10;;;;;;;14.90;7.57;;;;;;;10.62;100.00;98017.97;5037483;28;20403;-78
2024/02/17 00:18:37;;;;;;;15.45;7.20;;;;;;;10.64;100.00;98021.19;5037195;28;20425;-78
2024/02/17 00:21:04;;;;;;;14.60;7.05;;;;;;;10.62;100.00;98018.78;5037385;28;20403;-78
2024/02/17 00:23:30;;;;;;;12.35;7.10;;;;;;;10.63;100.00;98023.03;5037034;28;20927;-78
2024/02/17 00:25:56;;;;;;;13.40;6.10;;;;;;;10.64;100.00;98026.50;5038678;28;20478;-78
2024/02/17 00:28:26;;;;;;;14.10;6.10;;;;;;;10.65;100.00;98030.75;5038601;28;20399;-78
2024/02/17 00:30:53;;;;;;;10.35;5.45;;;;;;;10.65;100.00;98023.63;5039230;28;20875;-78
2024/02/17 00:33:20;;;;;;;12.77;5.60;;;;;;;10.66;100.00;98032.38;5038595;28;20405;-78
2024/02/17 00:35:46;;;;;;;10.95;5.28;;;;;;;10.65;100.00;98026.28;5039062;28;20435;-78
2024/02/17 00:38:12;;;;;;;11.88;5.43;;;;;;;10.64;100.00;98024.66;5039089;28;20402;-78
2024/02/17 00:40:39;;;;;;;10.10;5.05;;;;;;;10.65;100.00;98033.41;5038602;28;20465;-78
2024/02/17 00:43:05;;;;;;;10.55;5.22;;;;;;;10.66;100.00;98037.66;5038937;28;20395;-78
2024/02/17 00:45:31;;;;;;;11.77;4.80;;;;;;;10.67;100.00;98036.63;5038121;28;20394;-78
2024/02/17 00:47:57;;;;;;;9.50;4.63;;;;;;;10.66;100.00;98035.81;5039762;28;20429;-78
2024/02/17 00:50:25;;;;;;;9.27;4.88;;;;;;;10.66;100.00;98043.75;5038433;28;20395;-78
2024/02/17 00:52:52;;;;;;;8.82;4.63;;;;;;;10.65;100.00;98044.81;5038150;28;20439;-78
2024/02/17 00:55:18;;;;;;;10.10;4.50;;;;;;;10.63;100.00;98046.88;5038403;28;20446;-78
2024/02/17 00:57:45;;;;;;;11.02;5.20;;;;;;;10.61;100.00;98046.28;5038212;28;20437;-78
2024/02/17 01:00:12;;;;;;;11.63;5.22;;;;;;;10.60;100.00;98049.19;5038411;28;20478;-78
2024/02/17 01:02:39;;;;;;;9.32;4.75;;;;;;;10.59;100.00;98053.69;5038819;28;20417;-78
2024/02/17 01:05:05;;;;;;;8.70;4.38;;;;;;;10.61;100.00;98061.38;5038679;28;20395;-78
2024/02/17 01:07:33;;;;;;;7.57;4.43;;;;;;;10.58;100.00;98057.38;5041062;28;20402;-78
2024/02/17 01:09:59;;;;;;;13.25;4.35;;;;;;;10.58;100.00;98065.31;5041638;28;20415;-78
2024/02/17 01:12:25;;;;;;;8.48;4.03;;;;;;;10.57;100.00;98063.69;5037532;28;20403;-78
2024/02/17 01:14:51;;;;;;;8.13;4.00;;;;;;;10.58;100.00;98059.22;5037943;28;20399;-78
2024/02/17 01:17:18;;;;;;;8.38;4.25;;;;;;;10.59;100.00;98060.81;5038402;28;20915;-78
2024/02/17 01:19:44;;;;;;;7.63;4.00;;;;;;;10.60;100.00;98067.72;5037966;28;20423;-78
2024/02/17 01:22:10;;;;;;;10.80;4.03;;;;;;;10.62;100.00;98060.34;5037188;28;20403;-78
2024/02/17 01:24:37;;;;;;;8.27;4.10;;;;;;;10.64;100.00;98071.50;5037178;28;20709;-78
2024/02/17 01:27:07;;;;;;;6.78;3.45;;;;;;;10.64;100.00;98069.66;5036634;28;20427;-78
2024/02/17 01:29:33;;;;;;;10.85;4.30;;;;;;;10.64;100.00;98072.31;5036824;28;20414;-78
2024/02/17 01:31:59;;;;;;;7.35;4.10;;;;;;;10.62;100.00;98078.88;5037070;28;20413;-78
2024/02/17 01:34:25;;;;;;;8.48;4.60;;;;;;;10.58;100.00;98093.63;5036834;28;20399;-78
2024/02/17 01:36:51;;;;;;;10.48;4.68;;;;;;;10.56;100.00;98085.09;5036121;28;20395;-78
2024/02/17 01:39:18;;;;;;;7.30;4.50;;;;;;;10.53;100.00;98085.56;5036654;28;20807;-78
2024/02/17 01:41:45;;;;;;;5.93;3.65;;;;;;;10.52;100.00;98084.78;5036496;28;20483;-77
2024/02/17 01:44:12;;;;;;;7.53;3.60;;;;;;;10.53;100.00;98088.22;5037325;28;20540;-78
2024/02/17 01:46:39;;;;;;;7.72;3.08;;;;;;;10.54;100.00;98089.81;5036601;28;20395;-78
2024/02/17 01:49:05;;;;;;;7.40;3.38;;;;;;;10.55;100.00;98091.44;5036480;28;20398;-78
2024/02/17 01:51:31;;;;;;;4.80;2.95;;;;;;;10.53;100.00;98096.94;5036900;28;20442;-78
2024/02/17 01:53:59;;;;;;;6.38;2.80;;;;;;;10.55;100.00;98100.19;5036468;28;20430;-78
2024/02/17 01:56:27;;;;;;;4.72;2.70;;;;;;;10.56;100.00;98099.16;5036223;28;20461;-78
2024/02/17 01:58:55;;;;;;;5.13;2.90;;;;;;;10.57;100.00;98100.75;5036559;28;20391;-78
2024/02/17 02:01:22;;;;;;;8.00;3.40;;;;;;;10.53;100.00;98098.78;5036462;28;20454;-78
2024/02/17 02:03:48;;;;;;;4.40;2.90;;;;;;;10.50;100.00;98093.97;5036188;28;20399;-78
2024/02/17 02:06:20;;;;;;;4.85;3.00;;;;;;;10.48;100.00;98104.78;5035955;28;20452;-78
2024/02/17 02:08:47;;;;;;;5.10;3.00;;;;;;;10.46;100.00;98104.22;5036766;28;20400;-78
2024/02/17 02:11:13;;;;;;;4.60;2.95;;;;;;;10.43;100.00;98102.06;5036276;28;20391;-78
2024/02/17 02:13:39;;;;;;;4.20;2.50;;;;;;;10.43;100.00;98104.69;5036200;28;20399;-78
2024/02/17 02:16:07;;;;;;;4.18;2.72;;;;;;;10.43;100.00;98113.44;5036071;28;20418;-78
2024/02/17 02:18:33;;;;;;;6.07;2.50;;;;;;;10.45;100.00;98118.47;5036402;28;20399;-78
2024/02/17 02:21:00;;;;;;;3.95;2.30;;;;;;;10.45;100.00;98115.84;5036395;28;20426;-78
2024/02/17 02:23:26;;;;;;;6.18;2.50;;;;;;;10.46;100.00;98134.13;5036777;28;20742;-78
2024/02/17 02:25:55;;;;;;;11.15;4.40;;;;;;;10.46;100.00;98138.63;5035990;28;20780;-78
2024/02/17 02:28:23;;;;;;;20.47;5.73;;;;;;;10.41;100.00;98138.53;5036297;28;20951;-78
2024/02/17 02:30:52;;;;;;;20.10;6.97;;;;;;;10.34;100.00;98143.94;5036335;28;20526;-78
2024/02/17 02:33:18;;;;;;;34.10;9.50;;;;;;;10.28;100.00;98152.81;5036382;28;20414;-78
2024/02/17 02:35:45;;;;;;;41.38;11.40;;;;;;;10.22;100.00;98143.16;5036653;28;20399;-78
2024/02/17 02:38:11;;;;;;;51.47;13.38;;;;;;;10.15;100.00;98150.31;5036598;28;20752;-78
2024/02/17 02:40:37;;;;;;;70.93;15.93;;;;;;;10.10;100.00;98163.44;5036242;28;20766;-78
2024/02/17 02:43:05;;;;;;;80.80;17.15;;;;;;;10.06;100.00;98160.47;5037248;28;20399;-78
2024/02/17 02:45:33;;;;;;;76.47;17.17;;;;;;;10.04;100.00;98159.88;5035650;28;21075;-78
2024/02/17 02:47:59;;;;;;;79.60;16.33;;;;;;;10.02;100.00;98169.88;5036644;28;20402;-78
2024/02/17 02:50:25;;;;;;;86.60;18.92;;;;;;;10.02;100.00;98164.59;5035334;28;20407;-77
2024/02/17 02:52:51;;;;;;;96.88;19.33;;;;;;;10.01;100.00;98162.16;5035615;28;20406;-78
2024/02/17 02:55:18;;;;;;;81.68;16.67;;;;;;;9.99;100.00;98170.34;5032800;28;20399;-77
2024/02/17 02:57:44;;;;;;;110.53;25.03;;;;;;;10.02;100.00;98174.34;5034338;28;20403;-77
2024/02/17 03:00:12;;;;;;;98.32;20.85;;;;;;;9.95;100.00;98171.81;5035394;28;20453;-77
2024/02/17 03:02:38;;;;;;;117.85;24.05;;;;;;;9.97;100.00;98179.53;5034468;28;20395;-77
2024/02/17 03:05:04;;;;;;;115.47;23.47;;;;;;;9.93;100.00;98179.16;5035326;28;20406;-79
2024/02/17 03:07:31;;;;;;;153.68;30.90;;;;;;;9.94;100.00;98179.97;5035422;28;20474;-77
2024/02/17 03:09:57;;;;;;;126.45;26.65;;;;;;;9.89;100.00;98185.16;5034652;28;20399;-79
2024/02/17 03:12:23;;;;;;;123.55;25.58;;;;;;;9.87;100.00;98189.84;5035745;28;20399;-77
2024/02/17 03:14:49;;;;;;;124.53;25.77;;;;;;;9.86;100.00;98190.88;5036709;28;20464;-79
2024/02/17 03:17:17;;;;;;;132.68;27.88;;;;;;;9.85;100.00;98190.06;5035166;28;20399;-79
2024/02/17 03:19:43;;;;;;;141.88;28.98;;;;;;;9.84;100.00;98195.63;5033997;28;20415;-77
2024/02/17 03:22:09;;;;;;;133.00;25.45;;;;;;;9.82;100.00;98193.19;5034371;28;20422;-77
2024/02/17 03:24:35;;;;;;;133.15;27.05;;;;;;;9.83;100.00;98188.72;5034289;28;20725;-78
2024/02/17 03:27:01;;;;;;;155.77;30.67;;;;;;;9.81;100.00;98196.84;5034328;28;20498;-78
2024/02/17 03:29:27;;;;;;;126.95;24.75;;;;;;;9.80;100.00;98199.72;5035071;28;20697;-78
2024/02/17 03:31:54;;;;;;;158.50;29.23;;;;;;;9.81;100.00;98198.69;5036605;28;20952;-78
2024/02/17 03:34:21;;;;;;;162.38;27.60;;;;;;;9.77;100.00;98203.66;5050068;28;20455;-78
2024/02/17 03:36:47;;;;;;;212.13;35.73;;;;;;;9.77;100.00;98214.22;5051497;28;20410;-79
2024/02/17 03:39:15;;;;;;;181.55;30.75;;;;;;;9.71;100.00;98213.25;5053409;28;20403;-78
2024/02/17 03:41:41;;;;;;;166.80;28.10;;;;;;;9.67;100.00;98220.03;5049346;28;20402;-79
2024/02/17 03:44:09;;;;;;;157.57;26.63;;;;;;;9.64;100.00;98220.47;5037019;28;20819;-79
2024/02/17 03:46:35;;;;;;;149.90;28.58;;;;;;;9.65;100.00;98229.22;5037621;28;20403;-79
2024/02/17 03:49:01;;;;;;;136.80;23.58;;;;;;;9.62;100.00;98233.09;5036960;28;20415;-79
2024/02/17 03:51:29;;;;;;;135.80;23.93;;;;;;;9.62;100.00;98237.63;5036473;28;20405;-79
2024/02/17 03:53:55;;;;;;;157.45;27.10;;;;;;;9.62;100.00;98245.53;5036722;28;20435;-79
2024/02/17 03:56:21;;;;;;;130.02;23.55;;;;;;;9.58;100.00;98247.81;5036431;28;20482;-79
2024/02/17 03:58:47;;;;;;;139.35;24.45;;;;;;;9.58;100.00;98245.16;5037053;28;20857;-79
2024/02/17 04:01:14;;;;;;;120.07;21.75;;;;;;;9.57;100.00;98240.91;5036805;28;20481;-79
2024/02/17 04:03:40;;;;;;;124.03;22.83;;;;;;;9.57;100.00;98248.84;5037679;28;20395;-79
2024/02/17 04:06:06;;;;;;;130.73;22.15;;;;;;;9.57;100.00;98259.41;5037345;28;20718;-80
2024/02/17 04:08:34;;;;;;;117.45;18.77;;;;;;;9.57;100.00;98251.47;5037747;28;20414;-79
2024/02/17 04:11:00;;;;;;;126.28;23.00;;;;;;;9.58;100.00;98253.09;5037250;28;20411;-79
2024/02/17 04:13:27;;;;;;;132.03;19.57;;;;;;;9.58;100.00;98258.38;5037489;28;20395;-79
2024/02/17 04:15:53;;;;;;;132.20;20.23;;;;;;;9.56;100.00;98265.72;5036897;28;20734;-79
2024/02/17 04:18:19;;;;;;;120.15;22.55;;;;;;;9.55;100.00;98263.28;5037112;28;20453;-80
2024/02/17 04:20:47;;;;;;;117.95;20.33;;;;;;;9.51;100.00;98262.13;5037201;28;20429;-79
2024/02/17 04:23:13;;;;;;;143.52;22.73;;;;;;;9.48;100.00;98267.84;5037132;28;20438;-79
2024/02/17 04:25:41;;;;;;;102.72;18.52;;;;;;;9.47;100.00;98263.63;5037686;28;20406;-80
2024/02/17 04:28:08;;;;;;;101.03;18.85;;;;;;;9.44;100.00;98269.34;5038842;28;20406;-79
2024/02/17 04:30:34;;;;;;;85.03;16.98;;;;;;;9.43;100.00;98273.00;5037942;28;20445;-80
2024/02/17 04:33:00;;;;;;;74.88;13.85;;;;;;;9.44;100.00;98288.66;5037583;28;20399;-80
2024/02/17 04:35:27;;;;;;;70.13;12.48;;;;;;;9.44;100.00;98301.06;5036260;28;20438;-79
2024/02/17 04:37:53;;;;;;;53.20;9.70;;;;;;;9.45;100.00;98313.25;5035933;28;20411;-80
2024/02/17 04:40:20;;;;;;;56.47;11.82;;;;;;;9.46;100.00;98310.38;5036768;28;20899;-79
2024/02/17 04:42:48;;;;;;;52.33;10.30;;;;;;;9.47;100.00;98313.84;5040053;28;20407;-77
2024/02/17 04:45:14;;;;;;;44.30;8.32;;;;;;;9.46;100.00;98325.44;5039188;28;20395;-80
2024/02/17 04:47:41;;;;;;;77.57;14.93;;;;;;;9.46;100.00;98322.78;5039886;28;20399;-79
2024/02/17 04:50:09;;;;;;;72.43;13.05;;;;;;;9.44;100.00;98327.47;5040030;28;20395;-79
2024/02/17 04:52:36;;;;;;;55.65;10.88;;;;;;;9.43;100.00;98339.06;5039525;28;20422;-79
2024/02/17 04:55:02;;;;;;;61.92;11.27;;;;;;;9.41;100.00;98336.66;5039612;28;20406;-79
2024/02/17 04:57:28;;;;;;;93.07;16.47;;;;;;;9.41;100.00;98339.28;5022255;28;20545;-79
2024/02/17 04:59:55;;;;;;;98.50;16.92;;;;;;;9.41;100.00;98347.22;5039988;28;20815;-79
2024/02/17 05:02:23;;;;;;;128.70;21.85;;;;;;;9.40;100.00;98348.25;5040544;28;20967;-79
2024/02/17 05:04:49;;;;;;;137.13;22.80;;;;;;;9.36;100.00;98339.16;5039776;28;20469;-79
2024/02/17 05:07:15;;;;;;;151.82;23.42;;;;;;;9.37;100.00;98350.53;5039042;28;21088;-79
2024/02/17 05:09:41;;;;;;;156.77;25.08;;;;;;;9.37;100.00;98353.16;5039784;28;20837;-79
2024/02/17 05:12:08;;;;;;;169.65;25.77;;;;;;;9.36;100.00;98360.28;5039739;28;20413;-79
2024/02/17 05:14:36;;;;;;;133.93;22.10;;;;;;;9.33;100.00;98352.78;5039832;28;20410;-79
2024/02/17 05:17:04;;;;;;;153.50;22.83;;;;;;;9.33;100.00;98361.53;5023082;28;20410;-79
2024/02/17 05:19:31;;;;;;;159.30;23.67;;;;;;;9.34;100.00;98359.69;5040194;28;20454;-79
2024/02/17 05:21:58;;;;;;;143.10;21.55;;;;;;;9.35;100.00;98371.06;5041509;28;20414;-79
2024/02/17 05:24:25;;;;;;;139.52;22.45;;;;;;;9.34;100.00;98370.25;5041262;28;20434;-79
2024/02/17 05:26:51;;;;;;;171.07;28.65;;;;;;;9.35;100.00;98363.94;5040209;28;20482;-79
2024/02/17 05:29:17;;;;;;;190.57;28.13;;;;;;;9.33;100.00;98377.38;5040658;28;20744;-79
2024/02/17 05:31:43;;;;;;;196.00;30.70;;;;;;;9.33;100.00;98382.66;5041630;28;20963;-79
2024/02/17 05:34:10;;;;;;;196.10;31.02;;;;;;;9.32;100.00;98383.69;5040506;28;20913;-79
2024/02/17 05:36:37;;;;;;;179.70;29.25;;;;;;;9.33;100.00;98387.13;5040618;28;20460;-79
2024/02/17 05:39:03;;;;;;;188.90;29.42;;;;;;;9.33;100.00;98392.41;5040642;28;20392;-79
2024/02/17 05:41:29;;;;;;;178.43;27.02;;;;;;;9.32;100.00;98393.47;5041027;28;20403;-79
2024/02/17 05:43:56;;;;;;;178.30;28.70;;;;;;;9.33;100.00;98390.59;5040855;28;20399;-79
2024/02/17 05:46:23;;;;;;;159.10;24.80;;;;;;;9.33;100.00;98395.88;5040754;28;20450;-79
2024/02/17 05:48:51;;;;;;;148.15;23.85;;;;;;;9.35;100.00;98400.13;5040267;28;20403;-79
2024/02/17 05:51:19;;;;;;;163.90;25.15;;;;;;;9.31;100.00;98399.78;5040292;28;20421;-78
2024/02/17 05:53:45;;;;;;;150.65;21.38;;;;;;;9.31;100.00;98399.78;5039617;28;20430;-79
2024/02/17 05:56:11;;;;;;;167.52;27.92;;;;;;;9.30;100.00;98406.91;5039453;28;20395;-79
2024/02/17 05:58:37;;;;;;;150.93;22.23;;;;;;;9.30;100.00;98406.09;5038773;28;20411;-78
2024/02/17 06:01:03;;;;;;;99.55;16.77;;;;;;;9.29;100.00;98404.47;5039273;28;20498;-79
2024/02/17 06:03:32;;;;;;;101.82;16.73;;;;;;;9.28;100.00;98416.06;5020771;28;20411;-78
2024/02/17 06:05:58;;;;;;;92.27;15.00;;;;;;;9.28;100.00;98416.06;5038809;28;20447;-78
2024/02/17 06:08:26;;;;;;;109.25;18.00;;;;;;;9.26;100.00;98428.66;5038789;28;20406;-78
2024/02/17 06:10:52;;;;;;;115.90;19.75;;;;;;;9.23;100.00;98429.13;5039032;28;20399;-79
2024/02/17 06:13:20;;;;;;;117.22;19.10;;;;;;;9.21;100.00;98431.97;5038481;28;20844;-78
2024/02/17 06:15:46;;;;;;;113.38;18.45;;;;;;;9.18;100.00;98436.84;5038389;28;20434;-78
2024/02/17 06:21:19;;;;;;;152.70;21.90;;;;;;;9.06;100.00;98449.97;5038496;28;20815;-78
2024/02/17 06:23:51;;;;;;;171.75;27.45;;;;;;;9.02;100.00;98451.41;5038193;28;20466;-78
2024/02/17 06:26:21;;;;;;;167.15;27.23;;;;;;;9.01;100.00;98452.44;5037979;28;20399;-78
2024/02/17 06:28:48;;;;;;;147.75;24.15;;;;;;;8.92;100.00;98457.19;5037702;28;20449;-78
2024/02/17 06:31:14;;;;;;;191.88;30.73;;;;;;;8.85;100.00;98460.88;5037706;28;20418;-79
2024/02/17 06:33:40;;;;;;;178.55;29.20;;;;;;;8.75;100.00;98464.00;5037617;28;20419;-78
2024/02/17 06:36:07;;;;;;;180.32;30.88;;;;;;;8.66;100.00;98465.25;5037354;28;20406;-78
2024/02/17 06:38:33;;;;;;;165.00;26.77;;;;;;;8.60;100.00;98473.22;5037540;28;20594;-79
2024/02/17 06:41:01;;;;;;;136.95;24.08;;;;;;;8.50;100.00;98474.47;5037237;28;20591;-79
2024/02/17 06:43:27;;;;;;;162.02;25.85;;;;;;;8.45;100.00;98482.22;5038093;28;20402;-79
2024/02/17 06:45:53;;;;;;;130.20;22.92;;;;;;;8.39;100.00;98490.19;5037132;28;20407;-78
2024/02/17 06:48:19;;;;;;;157.20;26.30;;;;;;;8.34;100.00;98496.09;5038387;28;20395;-79
2024/02/17 06:50:45;;;;;;;150.95;24.02;;;;;;;8.28;100.00;98488.97;5037216;28;20397;-78
2024/02/17 06:53:11;;;;;;;103.90;18.67;;;;;;;8.27;100.00;98499.75;5037283;28;20402;-78
2024/02/17 06:55:37;;;;;;;174.13;30.05;;;;;;;8.24;100.00;98502.78;5036528;28;20418;-78
2024/02/17 06:58:05;;;;;;;156.05;24.30;;;;;;;8.21;100.00;98506.63;5033965;28;20399;-78
2024/02/17 07:00:31;;;;;;;150.02;27.00;;;;;;;8.20;100.00;98512.13;5033385;28;20421;-78
2024/02/17 07:02:57;;;;;;;183.30;31.25;;;;;;;8.20;100.00;98520.03;5033198;28;20403;-77
2024/02/17 07:05:23;;;;;;;181.23;29.23;;;;;;;8.21;100.00;98519.00;5033725;28;20409;-78
2024/02/17 07:07:50;;;;;;;216.25;34.53;;;;;;;8.22;100.00;98518.81;5033597;28;20486;-78
2024/02/17 07:10:16;;;;;;;178.48;28.25;;;;;;;8.22;100.00;98524.09;5034602;28;20872;-77
2024/02/17 07:12:42;;;;;;;160.65;28.75;;;;;;;8.23;100.00;98530.19;5033435;28;20460;-77
2024/02/17 07:15:10;;;;;;;151.02;25.13;;;;;;;8.25;100.00;98528.16;5035672;28;20395;-78
2024/02/17 07:17:36;;;;;;;181.07;33.23;;;;;;;8.28;100.00;98543.53;5036388;28;20399;-79
2024/02/17 07:20:04;;;;;;;188.93;30.73;;;;;;;8.28;100.00;98541.72;5036377;28;20427;-79
2024/02/17 07:22:30;;;;;;;161.98;26.73;;;;;;;8.29;100.00;98542.53;5037387;28;20403;-79
2024/02/17 07:24:56;;;;;;;176.60;29.13;;;;;;;8.32;100.00;98553.53;5037764;28;20845;-79
2024/02/17 07:27:24;;;;;;;160.60;25.23;;;;;;;8.35;100.00;98550.44;5034146;28;20883;-77
2024/02/17 07:29:52;;;;;;;165.70;27.08;;;;;;;8.40;100.00;98561.22;5032532;28;21543;-77
2024/02/17 07:32:24;;;;;;;149.10;23.80;;;;;;;8.47;100.00;98561.19;5034504;28;20911;-76
2024/02/17 07:34:52;;;;;;;146.63;24.10;;;;;;;8.58;100.00;98568.44;5037446;28;20391;-78
2024/02/17 07:37:19;;;;;;;217.63;33.53;;;;;;;8.68;100.00;98568.81;5034936;28;20784;-77
2024/02/17 07:39:45;;;;;;;194.20;29.93;;;;;;;8.76;100.00;98567.75;5037014;28;20450;-79
2024/02/17 07:42:12;;;;;;;164.60;27.92;;;;;;;8.83;100.00;98579.91;5036343;28;20410;-77
2024/02/17 07:44:40;;;;;;;152.13;25.83;;;;;;;8.87;100.00;98583.72;5037788;28;20397;-78
2024/02/17 07:47:06;;;;;;;150.97;23.73;;;;;;;8.89;100.00;98578.25;5034412;28;20486;-78
2024/02/17 07:49:34;;;;;;;131.60;23.85;;;;;;;8.91;100.00;98586.78;5034228;28;20403;-78
2024/02/17 07:52:01;;;;;;;157.18;23.25;;;;;;;8.95;100.00;98587.19;5034649;28;20457;-78
2024/02/17 07:54:27;;;;;;;158.77;26.20;;;;;;;9.00;100.00;98597.91;5033651;28;20563;-77
2024/02/17 07:56:53;;;;;;;151.67;24.13;;;;;;;9.08;100.00;98592.38;5033770;28;20400;-78
2024/02/17 07:59:19;;;;;;;173.32;28.65;;;;;;;9.20;100.00;98594.13;5033418;28;20399;-78
2024/02/17 08:01:45;;;;;;;169.13;29.20;;;;;;;9.35;100.00;98606.25;5034690;28;20401;-78
2024/02/17 08:04:11;;;;;;;187.10;31.33;;;;;;;9.45;100.00;98610.03;5033066;28;20433;-78
2024/02/17 08:06:39;;;;;;;150.07;24.92;;;;;;;9.61;100.00;98617.47;5033295;28;20474;-77
2024/02/17 08:09:06;;;;;;;147.32;25.90;;;;;;;9.76;100.00;98618.97;5034122;28;20399;-77
2024/02/17 08:11:34;;;;;;;125.85;20.77;;;;;;;9.87;100.00;98624.38;5034222;28;20410;-78
2024/02/17 08:14:01;;;;;;;129.23;23.17;;;;;;;9.97;100.00;98627.34;5034201;28;20457;-77
2024/02/17 08:16:27;;;;;;;108.95;20.35;;;;;;;10.04;100.00;98635.22;5038829;28;20792;-77
2024/02/17 08:18:53;;;;;;;106.85;20.42;;;;;;;10.09;100.00;98632.72;5038084;28;20437;-77
2024/02/17 08:21:20;;;;;;;131.07;23.13;;;;;;;10.06;100.00;98631.34;5039656;28;20411;-77
2024/02/17 08:23:47;;;;;;;137.57;23.25;;;;;;;10.04;100.00;98636.03;5039563;28;20749;-77
2024/02/17 08:26:16;;;;;;;111.95;20.10;;;;;;;10.04;100.00;98638.66;5060287;28;20425;-80
2024/02/17 08:28:42;;;;;;;97.07;17.67;;;;;;;10.06;100.00;98646.41;5066757;28;20425;-79
2024/02/17 08:31:08;;;;;;;119.43;20.67;;;;;;;10.02;100.00;98645.19;5067593;28;20427;-79
2024/02/17 08:33:36;;;;;;;101.70;18.83;;;;;;;9.98;100.00;98650.13;5065253;28;20743;-78
2024/02/17 08:36:02;;;;;;;105.13;20.15;;;;;;;9.98;100.00;98649.31;5049512;28;20407;-78
2024/02/17 08:38:28;;;;;;;110.90;20.37;;;;;;;9.94;100.00;98656.84;5045389;28;20400;-79
2024/02/17 08:40:56;;;;;;;108.68;19.85;;;;;;;9.88;100.00;98655.06;5051955;28;20474;-78
2024/02/17 08:43:22;;;;;;;103.30;18.50;;;;;;;9.85;100.00;98655.50;5050080;28;20402;-79
2024/02/17 08:45:51;;;;;;;110.10;20.47;;;;;;;9.87;100.00;98658.75;5049055;28;20399;-78
2024/02/17 08:48:18;;;;;;;111.25;20.88;;;;;;;9.96;100.00;98662.75;5049104;28;20430;-79
2024/02/17 08:50:45;;;;;;;122.78;23.48;;;;;;;10.00;100.00;98663.13;5050127;28;20901;-80
2024/02/17 08:53:11;;;;;;;96.45;18.90;;;;;;;10.01;100.00;98668.19;5056558;28;20429;-79
2024/02/17 08:55:37;;;;;;;109.07;22.17;;;;;;;10.05;100.00;98666.75;5052098;28;20881;-79
2024/02/17 08:58:05;;;;;;;92.93;19.63;;;;;;;10.18;100.00;98675.63;5049878;28;20422;-79
2024/02/17 09:00:35;;;;;;;68.07;16.90;;;;;;;10.34;100.00;98667.94;5051562;28;20421;-79
2024/02/17 09:03:01;;;;;;;72.60;17.63;;;;;;;10.50;100.00;98671.88;5054071;28;20456;-79
2024/02/17 09:05:27;;;;;;;52.33;14.40;;;;;;;10.63;100.00;98671.75;5039201;28;20405;-79
2024/02/17 09:07:53;;;;;;;54.47;13.87;;;;;;;10.69;100.00;98676.16;5053444;28;20404;-80
2024/02/17 09:10:19;;;;;;;46.10;13.23;;;;;;;10.78;100.00;98681.97;5050845;28;20420;-78
2024/02/17 09:12:45;;;;;;;32.83;10.43;;;;;;;10.82;100.00;98683.16;5047306;28;20397;-80
2024/02/17 09:15:13;;;;;;;49.80;16.70;;;;;;;10.77;100.00;98677.69;5047263;28;20487;-79
2024/02/17 09:17:39;;;;;;;50.75;16.88;;;;;;;10.72;100.00;98688.16;5047278;28;20407;-79
2024/02/17 09:20:06;;;;;;;37.15;15.52;;;;;;;10.73;100.00;98695.88;5045470;28;20411;-79
2024/02/17 09:22:33;;;;;;;30.33;14.10;;;;;;;11.00;100.00;98698.22;5049783;28;20920;-79
2024/02/17 09:24:59;;;;;;;30.40;17.90;;;;;;;11.44;100.00;98699.72;5048896;28;20976;-79
2024/02/17 09:27:25;;;;;;;18.95;12.85;;;;;;;11.83;100.00;98693.91;5049800;28;20403;-77
2024/02/17 09:29:51;;;;;;;14.60;10.70;;;;;;;12.30;100.00;98691.34;5049726;28;20802;-79
2024/02/17 09:32:18;;;;;;;12.93;8.98;;;;;;;12.61;100.00;98712.25;5046504;28;20394;-78
2024/02/17 09:34:45;;;;;;;11.80;8.20;;;;;;;12.75;100.00;98707.50;5049864;28;20404;-79
2024/02/17 09:37:11;;;;;;;11.15;7.85;;;;;;;13.10;100.00;98705.59;5048216;28;20427;-79
2024/02/17 09:39:41;;;;;;;11.03;8.10;;;;;;;13.32;100.00;98712.97;5047764;28;20512;-80
2024/02/17 09:42:07;;;;;;;14.18;10.07;;;;;;;13.30;100.00;98715.88;5053230;28;20982;-79
2024/02/17 09:44:33;;;;;;;12.05;9.25;;;;;;;13.41;100.00;98724.84;5049224;28;20408;-80
2024/02/17 09:47:00;;;;;;;16.45;11.55;;;;;;;13.38;100.00;98730.66;5039341;28;20434;-80
2024/02/17 09:49:32;;;;;;;18.27;12.48;;;;;;;13.16;100.00;98736.59;5036493;28;20445;-79
2024/02/17 09:51:59;;;;;;;17.27;10.30;;;;;;;13.09;100.00;98740.38;5048763;28;20402;-79
2024/02/17 09:54:26;;;;;;;13.63;9.75;;;;;;;13.09;100.00;98751.81;5054984;28;20420;-80
2024/02/17 09:56:52;;;;;;;9.00;7.05;;;;;;;13.17;100.00;98745.38;5050055;28;20413;-79
2024/02/17 09:59:20;;;;;;;9.02;7.35;;;;;;;13.13;100.00;98760.19;5050459;28;20486;-80
2024/02/17 10:01:47;;;;;;;12.85;9.02;;;;;;;12.91;100.00;98767.91;5057427;28;20453;-80
2024/02/17 10:04:13;;;;;;;11.60;8.38;;;;;;;12.62;100.00;98774.16;5062460;28;20429;-79
2024/02/17 10:06:41;;;;;;;15.13;9.43;;;;;;;12.42;100.00;98769.16;5040601;28;20456;-80
2024/02/17 10:09:09;;;;;;;17.93;10.03;;;;;;;12.64;100.00;98774.72;5046290;28;20402;-80
2024/02/17 10:11:35;;;;;;;10.30;7.75;;;;;;;13.82;100.00;98785.81;5041107;28;20438;-79
2024/02/17 10:14:03;;;;;;;8.15;5.82;;;;;;;15.42;100.00;98787.00;5040017;28;20430;-77
2024/02/17 10:16:31;;;;;;;5.47;4.15;;;;;;;16.61;100.00;98793.09;5038441;28;20425;-78
2024/02/17 10:18:59;;;;;;;4.72;3.70;;;;;;;17.48;100.00;98799.00;5037190;28;20407;-77
2024/02/17 10:21:26;;;;;;;5.45;3.80;;;;;;;17.65;100.00;98791.63;5037999;28;20419;-77
2024/02/17 10:23:53;;;;;;;6.60;5.00;;;;;;;17.92;100.00;98791.44;5037036;28;20478;-77
2024/02/17 10:26:19;;;;;;;4.47;3.63;;;;;;;18.59;100.00;98777.88;5055724;28;20425;-77
2024/02/17 10:28:53;;;;;;;4.88;3.85;;;;;;;18.61;100.00;98756.97;5062309;28;20417;-78
2024/02/17 10:31:21;;;;;;;4.03;3.60;;;;;;;18.03;100.00;98748.34;5043924;28;20403;-78
2024/02/17 10:33:48;;;;;;;5.05;4.15;;;;;;;17.17;100.00;98753.34;5043816;28;20471;-78
2024/02/17 10:36:16;;;;;;;4.85;4.10;;;;;;;16.23;100.00;98753.22;5040979;28;20431;-78
2024/02/17 10:38:42;;;;;;;7.32;5.72;;;;;;;15.39;100.00;98756.31;5041070;28;20407;-79
2024/02/17 10:41:10;;;;;;;7.60;5.88;;;;;;;15.06;100.00;98759.06;5041454;28;20501;-78
2024/02/17 10:43:40;;;;;;;18.50;10.32;;;;;;;15.39;100.00;98753.63;5040921;28;20434;-78
2024/02/17 10:46:12;;;;;;;13.02;9.48;;;;;;;16.01;100.00;98755.16;5040012;28;20429;-78
2024/02/17 10:48:46;;;;;;;10.07;7.68;;;;;;;16.77;100.00;98753.09;5041376;28;20387;-78
2024/02/17 10:51:13;;;;;;;8.25;5.68;;;;;;;18.03;100.00;98758.25;5040634;28;20860;-78
2024/02/17 10:53:47;;;;;;;6.43;4.13;;;;;;;19.38;100.00;98758.41;5041965;28;20537;-79
2024/02/17 10:56:17;;;;;;;4.10;3.17;;;;;;;20.08;100.00;98756.44;5045747;28;20482;-79
2024/02/17 10:58:45;;;;;;;5.50;4.07;;;;;;;20.10;100.00;98747.03;5044037;28;20818;-80
2024/02/17 11:01:16;;;;;;;6.07;4.50;;;;;;;19.89;100.00;98748.25;5043264;28;20430;-80
2024/02/17 11:03:44;;;;;;;5.68;3.90;;;;;;;19.65;100.00;98749.97;5044838;28;20413;-80
2024/02/17 11:06:15;;;;;;;4.88;4.03;;;;;;;19.48;100.00;98753.00;5034978;28;20403;-80
2024/02/17 11:08:42;;;;;;;3.80;3.40;;;;;;;19.46;100.00;98757.84;5041240;28;20457;-79
2024/02/17 11:11:28;;;;;;;6.05;4.57;;;;;;;19.01;100.00;98761.47;5043065;28;20423;-79
2024/02/17 11:13:56;;;;;;;4.20;3.80;;;;;;;18.66;100.00;98753.47;5042912;28;20423;-79
2024/02/17 11:16:24;;;;;;;4.20;3.60;;;;;;;18.01;100.00;98752.34;5040531;28;20880;-78